Madison Park, Louisiana
Current Conditions -  °F | °C
As of 4:58 AM on Saturday 01 Nov 2014 (Local Time) from KBAD Reporting Station
Clear Clear  
Wind Chill: 38°   Ceiling: Unl
Heat Index: 38°   Visibility: 10mi
Dew Point: 26°   Wind: 2mph
Humidity: 61%   Direction: NA
Pressure: 30.38"   Gusts: NA
Location:  32.457°N, 93.7096°W
Report Text: KBAD 010958Z AUTO VRB02KT 10SM CLR 04/M03 A3038 RMK AO2 SLP291 T00361034
Loading
Personal Weather Stations






























Interactive Weather Map
Tropical Storm Tracking
New forecast layout! Learn more

10-Day Weather Forecast

Advertisements
Track Severe Weather on mobile